Timeline UpdatesTrip UpdatesNews PostsPvt PostsTravel TipsAdmin PostsConv PostsFollowed PostsChat RequestsBlog PostsPNR Posts

Disclaimer
Search
 
 
Wed Sep 3, 2014 00:31:17 ISTHomeTrainsΣChainsAtlasPNRForumGalleryNewsFAQTripsMembersLoginFeedback
No Recent News for this Train
Other Trains in the News **new
Latest...
.
Sat Feb 02, 2013 (04:10PM)
⇐ Return Journey: Train# 51187

51188/Katni - Bhusaval Passenger (UnReserved)

OLD Time-Table. Click here to UPDATE TT
Oct 05 2013 (11:32PM)
Change Departure Station:
Change Arrival Station:
Post a Train Travel TipPost a Train Travel Tip **new
Post a Comment/Question/Picture/VideoPost a Comment/Question/Picture/Video
Pantry/Catering
✕ NO Pantry Car
✕ NO Catering
RSA - Rake Sharing
Rake/Coach Composition
Loco
KTE-ET: KTE/ET WDM-3A ET-BSL: BSL/ET WAP-4
News    PNR    Forum    Time-Table    Availability    Fare Chart    Map    Arr/Dep History    Trips    Gallery    ΣChains    X/O    Timeline    
Travel Time: 16h 30m    62 halts    Distance: 552 km    Avg Speed: 33 km/hr
Type: Passenger
Zone: CR/Central
Departs @ 00:30
Platform# 1
SMTWTFS
Jabalpur Junction/JBP 
Arrives @ 17:00
Platform# 6
SMTWTFS
Bhusaval Junction/BSL 

62 halts. 68 intermediate Stations between Jabalpur Junction and Bhusaval Junction

Hide intermediate Stations  

#CodeStation NameX/OArrivesAvgDepartsAvgHaltPFDay#KmSpeedElevZoneAddress
1KTEKatni Junction (6)  -22:20-51-90.932387mWCRKatni, Madhya Pradesh
1.1KTESKatni South  22:24-22:24-  1-89.0 32386mWCRKatni, Madhya Pradesh
2MDRRMadhavnagar Road (2)  22:30-22:31-1m--1-85.647398mWCRMadhavnagar, Madhya Pradesh
3NWRNiwar (2)X  22:41-22:42-1m--1-77.752412mWCRPipraundh, Madhya Pradesh
4SNRRSansarpur (2)  22:51-22:52-1m--1-69.959436mWCRNational Highway 7, Madhya Pradesh
5SBDSleemanabad Road (2)  22:59-23:00-1m--1-63.057434mWCRSleemanabad, Madhya Pradesh
6DDCEDundi (2)  23:10-23:11-1m--1-53.560415mWCRDundi, Madhya Pradesh
7SHRSihora Road (2)X  23:26-23:28-2m--1-38.661388mWCRJabalpur, Madhya Pradesh
8GSPRGosalpur (2)X  23:39-23:40-1m--1-27.557396mWCRJabalpur, Madhya Pradesh
9DOEDeori (2)  23:51-23:52-1m--1-17.048392mWCRJabalpur, Madhya Pradesh
10ADTLAdhartal (2)X  00:03-00:04-1m--2-8.231393mWCRJabalpur, Madhya Pradesh
11JBP»Jabalpur Junction (4)»X  00:20-00:30-10m120.050416mWCRJabalpur, Madhya Pradesh
11.1HBGHowbagh Jabalpur (2)  00:33-00:33-  22.1 50405mSECRJabalpur, Madhya Pradesh
12MMLMadan Mahal (3)  00:34-00:36-2m123.356428mWCRJabalpur, Madhya Pradesh
12.1KEQKachhpura (2)X  00:38-00:38-  25.1 56392mWCRJabalpur, Madhya Pradesh
13BRGTBheraghat (2)  00:50-00:51-1m--216.461389mWCRBheraghat, Madhya Pradesh
14BHTNBhitoni (2)X  01:04-01:05-1m--229.658377mWCRJabalpur, Madhya Pradesh
15BMRBikrampur (2)  01:17-01:18-1m--241.164353mWCRBikrampur Dist Narsingpur., Madhya Pradesh
16SRIDShridham (3)X  01:29-01:31-2m3252.954373mWCRShridham, Madhya Pradesh
17KKBKarak Bel (2)  01:48-01:49-1m--268.329375mWCRKarak Bel, Madhya Pradesh
18BELDBelkhera (2)  01:58-01:59-1m--272.733367mWCRState Highway 22, Madhya Pradesh
19GPCGhatpindrai (2)  02:09-02:10-1m--278.235366mWCRGhatpindra, Madhya Pradesh
20NUNarsinghpur (2)X  02:20-02:22-2m2284.068365mWCRNarsimhapur, Madhya Pradesh
21KYKareli (2)X  02:36-02:37-1m2299.947361mWCRKareli, Madhya Pradesh
22KFYKarapgaon (2)X  02:48-02:49-1m--2108.547363mWCRNational Highway 26, Madhya Pradesh
23BNEBohani (2)XO  02:58-02:59-1m--2115.478361mWCRNarsinghpur, Madhya Pradesh
24GARGadarwara (2)XO  03:09-03:10-1m22128.456352mWCRNarsinghpur, Madhya Pradesh
25SCKRSalichauka Road (2)X  03:25-03:26-1m--2142.361355mWCRGadarwara, Madhya Pradesh
26JHTJunehta (2)  03:36-03:37-1m--2152.451353mWCRState Highway 22, Madhya Pradesh
27BKHBankhedi (2)X  03:44-03:46-2m--2158.369351mWCRBankheri, Madhya Pradesh
28PPIPipariya (3)X  04:03-04:05-2m32177.740338mWCRPiparia, Madhya Pradesh
29SXFSobhapur (2)  04:18-04:19-1m--2186.445338mWCRState Highway 22, Madhya Pradesh
30SGPSohagpur (2)X  04:31-04:33-2m--2195.443340mWCRSohagpur, Madhya Pradesh
31GMDGuramkhedi (2)  04:47-04:48-1m--2205.549337mWCRGuramkhedi, Madhya Pradesh
32BGTABagratawa (2)  05:04-05:05-1m--2218.529338mWCRBagra Tawa, Madhya Pradesh
33SQLSontalai (2)X  05:19-05:20-1m--2225.427329mWCRItarsi, Madhya Pradesh
34GROGurra (2)X  05:40-05:41-1m--2234.416327mWCRItarsi, Madhya Pradesh
35ETItarsi Junction (7)  06:20-06:45-25m--2245.057329mWCRItarsi 461111, Madhya Pradesh
35.1ITMAItarsi Marshalling Yard  06:46-06:46-  2245.8 57324mWCRItarsi, Madhya Pradesh
35.2JUHJujharpur CabinO  06:46-06:46-  2246.0 57322mWCRItarsi, Madhya Pradesh
35.3ETBItarsi B CabinX  06:52-06:52-  2251.2 57320mWCRJamani, Madhya Pradesh
36DRADularia (2)  06:58-06:59-1m--2257.242318mWCRItarsi, Madhya Pradesh
37KTZKhutwansa (2)X  07:07-07:08-1m--2262.849325mWCRSH 15, Madhya Pradesh
38DKIDharamkundi (2)O  07:17-07:18-1m--2270.231314mWCRSH 15, Madhya Pradesh
39BPFBanapura (2)  07:34-07:35-1m--2278.449314mWCRBanapura, Madhya Pradesh
40BIFBhaironpur (2)O  07:44-07:45-1m--2285.749322mWCRSH 15, Madhya Pradesh
41PGLPagdhal (2)X  07:54-07:55-1m--2293.041317mWCRPagdhal, Madhya Pradesh
42CGOChhidgaon (2)X  08:01-08:02-1m--2297.226309mWCRHarda, Madhya Pradesh
43TBNTimarni (2)  08:24-08:25-1m--2306.747308mWCRTimarni, Madhya Pradesh
44CRKCharkhera (2)XO  08:34-08:35-1m--2313.723298mWCRBarkalan, Madhya Pradesh
45HDHarda (3)X  08:53-08:55-2m--2320.864289mWCRHarda, Madhya Pradesh
46PALPalasner (2)  09:02-09:03-1m--2328.239296mWCRHarda, Madhya Pradesh
47MUOMasangaon (2)XO  09:12-09:13-1m--2334.112303mWCRSH 15, Madhya Pradesh
48BRIBhiringi (2)  09:39-09:40-1m--2339.3100294mWCRSH 15, Madhya Pradesh
49KROKurawan (2)X  09:44-09:45-1m--2345.929297mWCRSH 15, Madhya Pradesh
50KKNKhirkiya (2)O  09:58-10:00-2m12352.339281mWCRSH 15, Madhya Pradesh
51DRHIDagarhkeri (2)XO  10:17-10:18-1m--2363.220274mWCRState Highway 15, Madhya Pradesh
52BRUDBarud (2)X  10:47-10:48-1m--2372.876273mWCRKhandwa, Madhya Pradesh
53CAERChhanera (2)XO  10:56-10:58-2m--2383.021283mWCRChhanera, Madhya Pradesh
54CKKDCharkheda Khurd (2)  11:17-11:18-1m--2389.823274mWCRKhandwa, Madhya Pradesh
55SGBJSurgaon Banjari (2)  11:47-11:48-1m--2400.971298mWCRKhandwa, Madhya Pradesh
56TLVTalvadiya (2)O  11:58-12:00-2m--2412.756308mWCRKhandwa, Madhya Pradesh
57MTAMathela (2)XO  12:09-12:10-1m--2421.06322mWCRKhandwa, Madhya Pradesh
58KNWKhandwa Junction (5)  13:20-13:30-10m--2428.444310mCRKhandwa, Madhya Pradesh
59BRGJBargaon Gujar (2)  13:37-13:38-1m--2433.560316mCRKhandwa, Madhya Pradesh
60BMABagmar (2)X  13:44-13:45-1m--2439.566335mCRState Highway 27, Madhya Pradesh
61KDKKohdad (2)X  13:49-13:50-1m--2444.057344mCRState Highway 15, Madhya Pradesh
62DGNDongargaon (2)  13:58-13:59-1m12451.558373mCRBorgaon, Madhya Pradesh
63SXASagphata (2)  14:07-14:08-1m--2459.251350mCRKhandwa, Madhya Pradesh
64MWAMandwa (2)X  14:15-14:16-1m--2465.244317mCRState Highway 27, Madhya Pradesh
65NPNRNepanagar (2)  14:24-14:26-2m--2471.053289mCRState Highway 27, Madhya Pradesh
66CDIChandni (2)X  14:34-14:35-1m--2478.177276mCRNepanagar Rd, Madhya Pradesh
67AGQAsirgarh Road (2)X  14:43-14:44-1m--2488.367259mCRState Highway 27, Madhya Pradesh
68BAUBurhanpur (2)X  14:52-14:55-3m12497.362269mCRBurhanpur, Madhya Pradesh
69WGAWaghodaX  15:05-15:06-1m--2507.560259mCRChorwad, Maharashtra
70RVRaver (2)X  15:16-15:18-2m--2517.568242mCRJalgaon, Maharashtra
71NBNimbhoraX  15:27-15:28-1m--2527.658229mCRJalgaon, Maharashtra
72SAVSavda (2)  15:37-15:38-1m--2536.358220mCRSavda, Maharashtra
73DSKDuskheda (2)X  15:47-15:48-1m--2545.06213mCRDuskheda Station, Maharashtra
73.1BSBNBhusaval B Cabin  16:24-16:24-  2548.4 6214mCRBhusawal, Maharashtra
74BSL•Bhusaval Junction (8)•  17:00--62551.8-208mCRBhusaval 425201, Maharashtra
Scroll to Top
Scroll to Bottom